Huvudsida
METAR-TAF:

METAR-TAF

Flygplatser :

Bodö, Norge

Bodø flygplats

latitud: 67-16N, longitud: 014-22E, höjd: 1 m

Aktuellt väderrapport

Denna rapport gjordes för 26 minuter sedan, klockan 02:50 UTC
Vind 21 kt från ost
Temperatur -5°C
Fuktighet 58%
Tryck 998 hPa
Sikt 10 km eller mer
Inga moln under 1 500 m eller inga cumulonimbus

METAR: ENBO 190250Z 09021KT CAVOK M05/M12 Q0998

Tid: 04:16 (03:16 UTC)

Väderprognos

Prognos gäller från 19 kl. 00 UTC till 19 kl. 24 UTC
Vind 15 kt från ost
Sikt 10 km eller mer
Inga moln under 1 500 m eller inga cumulonimbus
Temporärt
från 19 kl. 00 UTC till 19 kl. 06 UTC
Vind 20 kt från ost/sydost i byarna ända upp till 30 kt

TAF: ENBO 1900/1924 10015KT CAVOK TEMPO 1900/1906 12020G30KT

Aktuella väderrapporter och prognoser från 4000 flygplatser (METAR- och TAF-rapporter).

De tillgängliga stationerna syns som gula och röda prickar på kartan.

För musen över prickarna för att se namnen på stationerna.

Klicka sedan för att få väderrapporter och prognoser.

För att ändra kartan: Klicka på de gröna knapparna med ett svart kors på för att zooma in; den gröna knappen med ett streck på för att zooma ut; eller på de gröna pilarna för angränsande kartor.


METAR-TAF: